Overview Statistics Trail Chart Weather Telemetry Raw packets
 

This is the latest recevied weather packets stored in our database for station/object I1SXT-13. If no packets are shown the sender has not sent any weather packets the latest 10 day(s).

<< 6 7 8 9 10 11 12 >>
Time Temp. Humidity Pressure Rain* Wind** Luminosity Snow
1788293962 23.89° C 86% 1021.6 hPa 0 mm - - -
1788293663 23.89° C 86% 1021.9 hPa 0 mm - - -
1788291863 23.89° C 89% 1021.5 hPa 0 mm - - -
1788290666 23.89° C 89% 1021.4 hPa 0 mm - - -
1788290065 23.89° C 89% 1021.5 hPa 0 mm - - -
1788289167 23.89° C 89% 1021 hPa 0 mm - - -
1788287964 23.89° C 87% 1021.3 hPa 0 mm - - -
1788287665 23.89° C 87% 1020.6 hPa 0 mm - - -
1788285868 24.44° C 84% 1021.1 hPa 0 mm - - -
1788284364 25.56° C 81% 1020.2 hPa 0 mm - - -
1788283163 26.11° C 78% 1019.4 hPa 0 mm - - -
1788281666 26.67° C 75% 1019.4 hPa 0 mm - - -
1788281066 27.22° C 74% 1019.8 hPa 0 mm - - -
1788280762 27.22° C 74% 1020 hPa 0 mm - - -
1788275366 30° C 69% 1020.8 hPa 0 mm - - -
1788273868 30° C 65% 1020.1 hPa 0 mm - - -
1788273564 30.56° C 65% 1020.5 hPa 0 mm - - -
1788273268 31.11° C 64% 1020.4 hPa 0 mm - - -
1788271763 30° C 66% 1020.9 hPa 0 mm - - -
1788271163 30° C 66% 1021.2 hPa 0 mm - - -
1788270266 30° C 65% 1021 hPa 0 mm - - -
1788269362 30° C 62% 1020.5 hPa 0 mm - - -
1788268465 30° C 61% 1021.2 hPa 0 mm - - -
1788267568 30° C 63% 1021.3 hPa 0 mm - - -
1788266367 29.44° C 65% 1021 hPa 0 mm - - -

* Rain since midnight (hover to see other rain measurements)
** Current wind speed in m/s (hover to see current wind gust speed)